Terminal Aerodrome Forecast
Issued by NWS Charleston, WV

Current Version | Previous Version | Graphics & Text | Print | Product List | Glossary On
Versions: 1 2 3 4 5 6 7 8 9 10 11 12 13 14 15 16 17 18 19 20 21 22
000
FTUS41 KRLX 160258 AAA
TAFEKN
TAF AMD
KEKN 160258Z 1603/1624 15006KT P6SM OVC050
     FM160800 22005KT P6SM OVC045
     FM161200 26005KT P6SM OVC035
     FM161400 26006KT 1 1/2SM -SHSN OVC022
     FM161600 26006KT 1SM -SHSN OVC017=

USA.gov is the U.S. government's official web portal to all federal, state and local government web resources and services.